PHKBA WSSL-WSSL

Flight info

Callsign PHKBA
Flight time 0h 8m
Altitude 1000
Route CIRCUITS
Aircraft C172/L-VGD/C

Departure

Time 2026-05-04 13:45
Airport Seletar Airport (WSSL)

Arrival

Time 2026-05-04 13:54
Airport Seletar Airport (WSSL)
Time Latitude Longitude Altitude Speed Heading
2026-05-04 13:31 1.41371 103.86835 50 ft 0 kts 213°
2026-05-04 13:38 1.41370 103.86834 50 ft 1 kts 213°
2026-05-04 13:38 1.41363 103.86830 50 ft 0 kts 213°
2026-05-04 13:39 1.41365 103.86808 50 ft 9 kts 311°
2026-05-04 13:39 1.41378 103.86747 50 ft 13 kts 212°
2026-05-04 13:40 1.41371 103.86742 50 ft 13 kts 212°
2026-05-04 13:40 1.41321 103.86710 50 ft 17 kts 214°
2026-05-04 13:40 1.41277 103.86680 50 ft 19 kts 212°
2026-05-04 13:41 1.41158 103.86600 50 ft 23 kts 211°
2026-05-04 13:41 1.41100 103.86565 50 ft 25 kts 212°
2026-05-04 13:42 1.40836 103.86394 50 ft 23 kts 213°
2026-05-04 13:42 1.40799 103.86321 50 ft 9 kts 304°
2026-05-04 13:42 1.40811 103.86303 49 ft 0 kts 305°
2026-05-04 13:43 1.40815 103.86298 49 ft 8 kts 301°
2026-05-04 13:43 1.40885 103.86235 48 ft 14 kts 34°
2026-05-04 13:43 1.40918 103.86258 48 ft 12 kts 35°
2026-05-04 13:43 1.40971 103.86293 48 ft 14 kts 37°
2026-05-04 13:44 1.41189 103.86435 50 ft 59 kts 33°
2026-05-04 13:44 1.41589 103.86689 152 ft 72 kts 32°
2026-05-04 13:44 1.41755 103.86797 204 ft 75 kts 32°
2026-05-04 13:44 1.42023 103.86970 285 ft 80 kts 35°
2026-05-04 13:45 1.42096 103.87019 292 ft 83 kts 35°
2026-05-04 13:45 1.42580 103.87303 479 ft 85 kts 10°
2026-05-04 13:45 1.43091 103.87030 619 ft 93 kts 303°
2026-05-04 13:45 1.43210 103.86832 657 ft 96 kts 301°
2026-05-04 13:46 1.43273 103.86724 706 ft 95 kts 301°
2026-05-04 13:46 1.43570 103.86151 902 ft 93 kts 275°
2026-05-04 13:46 1.43347 103.85816 976 ft 98 kts 214°
2026-05-04 13:46 1.42702 103.85468 1016 ft 113 kts 211°
2026-05-04 13:47 1.42077 103.85125 1009 ft 118 kts 212°
2026-05-04 13:47 1.41853 103.84993 991 ft 116 kts 213°
2026-05-04 13:47 1.41180 103.84560 917 ft 114 kts 216°
2026-05-04 13:47 1.40500 103.84209 863 ft 105 kts 184°
2026-05-04 13:48 1.39947 103.84511 704 ft 89 kts 124°
2026-05-04 13:48 1.39633 103.85023 544 ft 86 kts 120°
2026-05-04 13:48 1.39825 103.85542 387 ft 90 kts 38°
2026-05-04 13:48 1.40358 103.85884 238 ft 91 kts 38°
2026-05-04 13:49 1.40852 103.86211 110 ft 75 kts 35°
2026-05-04 13:49 1.41243 103.86469 53 ft 59 kts 33°
2026-05-04 13:49 1.41545 103.86667 51 ft 61 kts 33°
2026-05-04 13:49 1.41928 103.86909 173 ft 71 kts 32°
2026-05-04 13:50 1.42050 103.86985 171 ft 78 kts 33°
2026-05-04 13:50 1.42498 103.87250 407 ft 73 kts 31°
2026-05-04 13:50 1.42950 103.87216 581 ft 73 kts 310°
2026-05-04 13:50 1.43232 103.86743 704 ft 83 kts 303°
2026-05-04 13:51 1.43446 103.86214 860 ft 84 kts 261°
2026-05-04 13:51 1.43033 103.85815 966 ft 94 kts 211°
2026-05-04 13:51 1.42436 103.85474 989 ft 107 kts 213°
2026-05-04 13:51 1.41761 103.85081 968 ft 111 kts 213°
2026-05-04 13:52 1.40509 103.84292 1005 ft 100 kts 200°
2026-05-04 13:52 1.39904 103.84388 814 ft 87 kts 153°
2026-05-04 13:52 1.39564 103.84823 647 ft 75 kts 123°
2026-05-04 13:53 1.39589 103.85289 493 ft 79 kts 51°
2026-05-04 13:53 1.40016 103.85658 365 ft 79 kts 41°
2026-05-04 13:53 1.40455 103.85946 235 ft 75 kts 41°
2026-05-04 13:54 1.41227 103.86456 51 ft 51 kts 33°
2026-05-04 13:54 1.41442 103.86599 51 ft 19 kts 33°
2026-05-04 13:54 1.41460 103.86611 51 ft 1 kts 32°
2026-05-04 13:55 1.41610 103.86711 50 ft 51 kts 34°
2026-05-04 13:55 1.42427 103.87228 319 ft 73 kts 31°
2026-05-04 13:55 1.42864 103.87092 452 ft 82 kts 307°
2026-05-04 13:56 1.43168 103.86582 640 ft 85 kts 301°
2026-05-04 13:56 1.43320 103.86032 820 ft 88 kts 249°
2026-05-04 13:56 1.42209 103.85344 1085 ft 103 kts 210°
2026-05-04 13:57 1.41573 103.84970 1018 ft 103 kts 216°
2026-05-04 13:57 1.41006 103.84584 992 ft 99 kts 217°
2026-05-04 13:58 1.39612 103.84911 666 ft 77 kts 127°
2026-05-04 13:58 1.40099 103.85714 360 ft 81 kts 37°
2026-05-04 13:58 1.40541 103.86009 243 ft 70 kts 39°
2026-05-04 13:59 1.40920 103.86259 82 ft 64 kts 35°
2026-05-04 13:59 1.41271 103.86492 51 ft 50 kts 34°
2026-05-04 13:59 1.41947 103.86924 156 ft 66 kts 34°
2026-05-04 14:00 1.42322 103.87165 299 ft 64 kts 30°
2026-05-04 14:00 1.43090 103.86883 435 ft 85 kts 300°
2026-05-04 14:00 1.43339 103.86387 675 ft 79 kts 293°
2026-05-04 14:01 1.43181 103.85922 827 ft 84 kts 213°
2026-05-04 14:01 1.42627 103.85622 979 ft 89 kts 208°
2026-05-04 14:01 1.41373 103.84961 1051 ft 117 kts 208°
2026-05-04 14:02 1.40691 103.84591 926 ft 109 kts 208°
2026-05-04 14:02 1.40031 103.84352 834 ft 98 kts 169°
2026-05-04 14:02 1.39597 103.84771 665 ft 85 kts 114°
2026-05-04 14:02 1.39536 103.85261 513 ft 72 kts 59°
2026-05-04 14:03 1.39894 103.85587 397 ft 70 kts 34°
2026-05-04 14:03 1.40310 103.85849 261 ft 71 kts 36°
2026-05-04 14:03 1.40715 103.86115 147 ft 67 kts 33°
2026-05-04 14:03 1.41078 103.86361 56 ft 59 kts 30°
2026-05-04 14:04 1.41525 103.86654 51 ft 19 kts 33°
2026-05-04 14:04 1.41531 103.86721 50 ft 10 kts 123°
2026-05-04 14:04 1.41504 103.86762 50 ft 4 kts 125°
2026-05-04 14:05 1.41495 103.86775 50 ft 0 kts 124°
2026-05-04 14:05 1.41459 103.86797 50 ft 9 kts 191°
2026-05-04 14:06 1.41417 103.86801 50 ft 6 kts 122°
2026-05-04 14:06 1.41386 103.86841 50 ft 7 kts 167°
2026-05-04 14:06 1.41371 103.86834 50 ft 0 kts 212°